Humidity-temperature Sensor

Selected Measurement Type: Relative Humidity

 
Relative Humidity [%]     6 entries per hour
Showing data from 5/25/2020 (00:00:00 Z) to 5/24/2020 (00:01:00 Z)
Previous Next [ Day | 3-Days | 7-Days ]
First Last
Prev [ Day | 3-Days | 7-Days ] Next
First Last

Start Time:     :
End Time:     :     
Time (in GMT) :00 :50 :40 :30 :20 :10
Previous Next [ Day | 3-Days | 7-Days ]
First Last
Prev [ Day | 3-Days | 7-Days ] Next
First Last


123 => good data
MM => data is determined as missing
-- => data not received/configured
Back to Top Back to Top
5/25/2020 00:00 to 23:10 92.15 92.88 91.71 92.26 92.38 91.71
5/24/2020 23:00 to 22:10 92.36 92.59 92.36 93.13 93.15 92.99
5/24/2020 22:00 to 21:10 93.22 93.38 93.28 93.57 93.72 93.09
5/24/2020 21:00 to 20:10 92.86 92.63 93.11 92.99 93.55 93.67
5/24/2020 20:00 to 19:10 93.36 93.67 93.61 93.30 93.86 94.24
5/24/2020 19:00 to 18:10 93.70 93.82 93.55 94.63 94.51 94.49
5/24/2020 18:00 to 17:10 94.15 94.15 94.49 94.82 94.59 94.38
5/24/2020 17:00 to 16:10 94.05 94.03 94.24 93.38 93.86 93.51
5/24/2020 16:00 to 15:10 92.86 92.36 92.94 92.69 93.63 94.86
5/24/2020 15:00 to 14:10 93.63 94.17 94.97 95.13 95.24 95.01
5/24/2020 14:00 to 13:10 94.86 95.34 95.47 95.76 96.39 95.30
5/24/2020 13:00 to 12:10 94.82 95.30 95.05 96.20 95.84 95.30
5/24/2020 12:00 to 11:10 95.78 95.43 94.90 95.01 95.32 95.07
5/24/2020 11:00 to 10:10 94.49 93.78 95.53 94.68 95.22 95.30
5/24/2020 10:00 to 9:10 95.55 95.41 95.09 94.59 94.80 94.38
5/24/2020 09:00 to 8:10 95.01 95.11 94.34 93.42 94.70 93.84
5/24/2020 08:00 to 7:10 94.59 95.41 94.74 94.72 94.40 93.92
5/24/2020 07:00 to 6:10 94.53 94.09 94.40 94.55 94.32 94.09
5/24/2020 06:00 to 5:10 93.55 93.70 93.63 92.47 92.74 93.90
5/24/2020 05:00 to 4:10 93.53 93.82 94.43 94.24 93.97 93.70
5/24/2020 04:00 to 3:10 94.15 93.95 92.90 93.09 93.09 92.69
5/24/2020 03:00 to 2:10 93.38 93.38 93.45 92.72 93.09 93.47
5/24/2020 02:00 to 1:10 94.55 94.47 94.36 94.13 94.26 93.70
5/24/2020 01:00 to 0:10 93.76 93.99 93.95 93.34 93.38 93.86